createdAt,value
2023-04-15T00:00:56.182Z,4.47
2023-04-15T00:03:23.082Z,4.43
2023-04-15T00:05:49.739Z,3.67
2023-04-15T00:08:16.209Z,4.60
2023-04-15T00:10:44.193Z,8.20
2023-04-15T00:13:10.672Z,4.03
2023-04-15T00:15:37.693Z,4.60
2023-04-15T00:18:04.449Z,7.95
2023-04-15T00:20:31.428Z,8.85
2023-04-15T00:22:59.403Z,5.33
2023-04-15T00:25:25.913Z,7.20
2023-04-15T00:27:52.593Z,6.32
2023-04-15T00:30:19.638Z,7.18
2023-04-15T00:32:46.838Z,7.70
2023-04-15T00:35:13.849Z,8.43
2023-04-15T00:37:40.447Z,8.05
2023-04-15T00:40:12.214Z,6.75
2023-04-15T00:42:39.409Z,3.40
2023-04-15T00:45:07.075Z,7.57
2023-04-15T00:47:35.588Z,6.40
2023-04-15T00:50:02.159Z,4.63
2023-04-15T00:52:28.613Z,7.68
2023-04-15T00:54:55.479Z,8.15
2023-04-15T00:57:22.818Z,4.70
2023-04-15T00:59:49.385Z,4.80
2023-04-15T01:02:16.577Z,7.15
2023-04-15T01:04:43.527Z,6.65
2023-04-15T01:07:09.928Z,10.50
2023-04-15T01:09:36.460Z,8.50
2023-04-15T01:12:04.065Z,3.47
2023-04-15T01:14:30.678Z,4.45
2023-04-15T01:16:57.596Z,6.25
2023-04-15T01:19:24.251Z,4.82
2023-04-15T01:21:50.703Z,9.10
2023-04-15T01:24:18.636Z,7.23
2023-04-15T01:26:45.488Z,6.35
2023-04-15T01:29:12.062Z,6.20
2023-04-15T01:31:39.169Z,4.82
2023-04-15T01:34:06.052Z,9.52
2023-04-15T01:36:32.550Z,5.37
2023-04-15T01:38:59.444Z,7.85
2023-04-15T01:41:27.501Z,5.18
2023-04-15T01:43:54.172Z,6.70
2023-04-15T01:46:20.957Z,4.20
2023-04-15T01:48:47.387Z,7.07
2023-04-15T01:51:13.863Z,5.90
2023-04-15T01:53:40.602Z,5.32
2023-04-15T01:56:07.321Z,6.95
2023-04-15T01:58:33.861Z,5.22
2023-04-15T02:01:00.632Z,8.83
2023-04-15T02:03:29.570Z,4.00
2023-04-15T02:05:56.726Z,8.60
2023-04-15T02:08:23.280Z,7.05
2023-04-15T02:10:49.715Z,6.55
2023-04-15T02:13:17.023Z,5.77
2023-04-15T02:15:49.971Z,8.65
2023-04-15T02:18:16.796Z,5.80
2023-04-15T02:20:47.050Z,4.88
2023-04-15T02:23:13.721Z,6.63
2023-04-15T02:25:40.467Z,6.53
2023-04-15T02:28:07.191Z,8.02
2023-04-15T02:30:33.929Z,5.65
2023-04-15T02:33:02.344Z,2.80
2023-04-15T02:35:28.851Z,7.07
2023-04-15T02:37:55.704Z,8.10
2023-04-15T02:40:22.176Z,3.22
2023-04-15T02:42:48.614Z,7.43
2023-04-15T02:45:15.093Z,5.10
2023-04-15T02:47:41.672Z,4.15
2023-04-15T02:50:09.904Z,4.57
2023-04-15T02:52:36.325Z,4.30
2023-04-15T02:55:04.323Z,5.25
2023-04-15T02:57:30.990Z,10.88
2023-04-15T02:59:57.522Z,3.63
2023-04-15T03:02:24.302Z,8.17
2023-04-15T03:04:51.176Z,5.68
2023-04-15T03:07:18.180Z,6.22
2023-04-15T03:09:45.698Z,3.28
2023-04-15T03:12:12.205Z,9.38
2023-04-15T03:14:38.574Z,5.00
2023-04-15T03:17:05.019Z,5.65
2023-04-15T03:19:31.825Z,4.75
2023-04-15T03:21:58.318Z,5.43
2023-04-15T03:24:24.942Z,5.28
2023-04-15T03:26:51.437Z,3.80
2023-04-15T03:29:17.861Z,7.20
2023-04-15T03:31:44.257Z,5.38
2023-04-15T03:34:10.657Z,6.22
2023-04-15T03:36:37.231Z,4.97
2023-04-15T03:39:04.368Z,6.77
2023-04-15T03:41:31.030Z,8.48
2023-04-15T03:43:57.523Z,7.85
2023-04-15T03:46:24.105Z,5.25
2023-04-15T03:48:50.578Z,7.40
2023-04-15T03:51:16.996Z,6.77
2023-04-15T03:53:43.410Z,3.85
2023-04-15T03:56:09.846Z,4.15
2023-04-15T03:58:36.685Z,6.20
2023-04-15T04:01:03.224Z,5.05
2023-04-15T04:03:29.783Z,6.30
2023-04-15T04:05:56.656Z,5.50
2023-04-15T04:08:23.082Z,6.00
2023-04-15T04:10:49.497Z,5.03
2023-04-15T04:13:15.887Z,5.13
2023-04-15T04:15:42.384Z,7.63
2023-04-15T04:18:08.841Z,6.53
2023-04-15T04:20:35.840Z,7.43
2023-04-15T04:23:02.231Z,6.38
2023-04-15T04:25:28.639Z,7.13
2023-04-15T04:27:55.053Z,6.23
2023-04-15T04:30:21.476Z,5.20
2023-04-15T04:32:50.193Z,6.53
2023-04-15T04:35:16.626Z,6.68
2023-04-15T04:37:43.089Z,7.13
2023-04-15T04:40:10.605Z,10.73
2023-04-15T04:42:39.779Z,8.25
2023-04-15T04:45:07.373Z,7.85
2023-04-15T04:47:33.831Z,5.53
2023-04-15T04:50:00.249Z,5.07
2023-04-15T04:52:26.637Z,7.43
2023-04-15T04:54:53.047Z,6.85
2023-04-15T04:57:19.435Z,7.78
2023-04-15T04:59:45.807Z,5.30
2023-04-15T05:02:12.356Z,5.65
2023-04-15T05:04:39.111Z,6.03
2023-04-15T05:07:05.501Z,6.65
2023-04-15T05:09:32.556Z,5.63
2023-04-15T05:11:59.417Z,4.68
2023-04-15T05:14:26.015Z,7.28
2023-04-15T05:16:52.492Z,5.10
2023-04-15T05:19:18.934Z,3.38
2023-04-15T05:21:45.346Z,4.78
2023-04-15T05:24:11.842Z,5.47
2023-04-15T05:26:38.404Z,5.45
2023-04-15T05:29:05.159Z,4.47
2023-04-15T05:31:31.854Z,8.07
2023-04-15T05:33:58.484Z,7.80
2023-04-15T05:36:24.877Z,4.22
2023-04-15T05:38:51.333Z,4.68
2023-04-15T05:41:19.737Z,6.33
2023-04-15T05:43:46.443Z,5.82
2023-04-15T05:46:12.926Z,4.80
2023-04-15T05:48:39.475Z,5.82
2023-04-15T05:51:06.401Z,10.90
2023-04-15T05:53:32.893Z,11.33
2023-04-15T05:55:59.361Z,13.60
2023-04-15T05:58:25.991Z,18.73
2023-04-15T06:00:53.007Z,16.52
2023-04-15T06:03:23.002Z,14.98
2023-04-15T06:05:49.827Z,15.93
2023-04-15T06:08:16.272Z,18.75
2023-04-15T06:10:42.726Z,17.02
2023-04-15T06:13:09.149Z,24.80
2023-04-15T06:15:35.853Z,17.67
2023-04-15T06:18:03.117Z,14.23
2023-04-15T06:20:29.635Z,14.88
2023-04-15T06:22:56.327Z,9.50
2023-04-15T06:25:23.032Z,10.35
2023-04-15T06:27:49.500Z,7.70
2023-04-15T06:30:16.028Z,8.67
2023-04-15T06:32:42.521Z,9.30
2023-04-15T06:35:09.447Z,3.97
2023-04-15T06:37:36.429Z,6.82
2023-04-15T06:40:05.011Z,5.25
2023-04-15T06:42:31.610Z,5.27
2023-04-15T06:44:58.042Z,6.32
2023-04-15T06:47:24.463Z,5.97
2023-04-15T06:49:50.921Z,5.75
2023-04-15T06:52:17.604Z,5.80
2023-04-15T06:54:44.021Z,5.77
2023-04-15T06:57:10.531Z,4.60
2023-04-15T06:59:36.987Z,8.05
2023-04-15T07:02:03.528Z,5.43
2023-04-15T07:04:30.062Z,5.78
2023-04-15T07:06:56.910Z,6.00
2023-04-15T07:09:24.113Z,5.75
2023-04-15T07:11:51.508Z,7.47
2023-04-15T07:14:18.359Z,5.57
2023-04-15T07:16:44.809Z,6.03
2023-04-15T07:19:11.733Z,7.90
2023-04-15T07:21:39.987Z,8.35
2023-04-15T07:24:07.866Z,5.60
2023-04-15T07:26:34.380Z,7.45
2023-04-15T07:29:01.224Z,5.50
2023-04-15T07:31:28.110Z,8.07
2023-04-15T07:33:54.602Z,5.43
2023-04-15T07:36:21.006Z,7.10
2023-04-15T07:38:47.668Z,5.63
2023-04-15T07:41:14.250Z,4.22
2023-04-15T07:43:40.659Z,6.03
2023-04-15T07:46:07.249Z,5.97
2023-04-15T07:48:34.492Z,5.00
2023-04-15T07:51:02.759Z,5.60
2023-04-15T07:53:29.233Z,4.47
2023-04-15T07:55:55.936Z,5.40
2023-04-15T07:58:22.390Z,5.32
2023-04-15T08:00:49.009Z,4.97
2023-04-15T08:03:15.700Z,3.38
2023-04-15T08:05:42.265Z,6.40
2023-04-15T08:08:08.848Z,4.50
2023-04-15T08:10:35.577Z,5.45
2023-04-15T08:13:02.196Z,5.57
2023-04-15T08:15:28.704Z,3.60
2023-04-15T08:17:55.155Z,6.30
2023-04-15T08:20:21.685Z,3.93
2023-04-15T08:22:51.796Z,5.28
2023-04-15T08:25:19.844Z,4.38
2023-04-15T08:27:46.574Z,3.67
2023-04-15T08:30:13.373Z,5.22
2023-04-15T08:32:41.770Z,3.07
2023-04-15T08:35:09.193Z,3.10
2023-04-15T08:37:35.697Z,3.97
2023-04-15T08:40:02.059Z,4.22
2023-04-15T08:42:32.705Z,3.67
2023-04-15T08:45:05.152Z,3.00
2023-04-15T08:47:33.807Z,4.60
2023-04-15T08:50:04.315Z,8.40
2023-04-15T08:52:31.537Z,4.32
2023-04-15T08:55:00.568Z,4.55
2023-04-15T08:57:28.675Z,3.43
2023-04-15T08:59:58.808Z,3.40
2023-04-15T09:02:27.245Z,2.92
2023-04-15T09:04:54.193Z,4.30
2023-04-15T09:07:20.596Z,4.18
2023-04-15T09:09:48.544Z,3.53
2023-04-15T09:12:16.832Z,4.82
2023-04-15T09:14:46.207Z,4.10
2023-04-15T09:17:12.692Z,4.72
2023-04-15T09:19:39.245Z,2.25
2023-04-15T09:22:06.421Z,3.97
2023-04-15T09:24:37.545Z,2.78
2023-04-15T09:27:04.198Z,2.38
2023-04-15T09:29:31.320Z,2.75
2023-04-15T09:32:09.636Z,2.80
2023-04-15T09:34:37.137Z,2.23
2023-04-15T09:37:04.148Z,2.58
2023-04-15T09:39:50.025Z,2.97
2023-04-15T09:42:17.627Z,2.55
2023-04-15T09:44:44.317Z,4.93
2023-04-15T09:47:27.691Z,2.93
2023-04-15T09:49:58.414Z,3.55
2023-04-15T09:52:25.044Z,4.93
2023-04-15T09:54:55.810Z,2.85
2023-04-15T09:57:23.604Z,3.05
2023-04-15T09:59:51.032Z,3.33
2023-04-15T10:02:20.864Z,2.63
2023-04-15T10:04:48.923Z,3.42
2023-04-15T10:07:15.928Z,3.22
2023-04-15T10:09:45.745Z,3.22
2023-04-15T10:12:13.125Z,2.47
2023-04-15T10:14:41.410Z,1.90
2023-04-15T10:17:08.359Z,2.72
2023-04-15T10:19:37.653Z,3.92
2023-04-15T10:22:04.962Z,2.70
2023-04-15T10:24:32.082Z,3.97
2023-04-15T10:26:59.904Z,1.90
2023-04-15T10:29:29.317Z,3.38
2023-04-15T10:31:56.897Z,2.10
2023-04-15T10:34:24.719Z,2.80
2023-04-15T10:36:51.984Z,2.97
2023-04-15T10:39:51.063Z,2.30
2023-04-15T10:42:19.783Z,2.83
2023-04-15T10:44:51.877Z,5.80
2023-04-15T10:47:21.316Z,3.08
2023-04-15T10:49:57.934Z,4.53
2023-04-15T10:52:27.598Z,2.65
2023-04-15T10:55:16.402Z,1.92
2023-04-15T10:57:43.847Z,2.88
2023-04-15T11:00:14.549Z,2.45
2023-04-15T11:02:57.669Z,4.33
2023-04-15T11:05:51.592Z,2.85
2023-04-15T11:08:18.113Z,3.22
2023-04-15T11:10:44.726Z,1.20
2023-04-15T11:13:11.386Z,1.45
2023-04-15T11:15:40.987Z,2.60
2023-04-15T11:18:23.692Z,1.38
2023-04-15T11:20:51.518Z,2.05
2023-04-15T11:23:19.587Z,1.65
2023-04-15T11:25:46.268Z,4.28
2023-04-15T11:28:13.705Z,1.80
2023-04-15T11:30:40.800Z,4.35
2023-04-15T11:33:09.543Z,1.42
2023-04-15T11:35:36.674Z,2.83
2023-04-15T11:38:10.252Z,1.65
2023-04-15T11:40:37.653Z,2.10
2023-04-15T11:43:24.451Z,2.75
2023-04-15T11:45:53.131Z,2.92
2023-04-15T11:48:22.975Z,2.05
2023-04-15T11:50:58.034Z,4.25
2023-04-15T11:53:25.223Z,2.80
2023-04-15T11:55:53.977Z,2.10
2023-04-15T11:58:25.219Z,2.88
2023-04-15T12:00:59.079Z,1.83
2023-04-15T12:03:29.929Z,2.15
2023-04-15T12:06:19.027Z,2.27
2023-04-15T12:08:53.118Z,1.38
2023-04-15T12:11:45.326Z,2.13
2023-04-15T12:14:16.893Z,2.90
2023-04-15T12:16:47.851Z,1.73
2023-04-15T12:19:43.193Z,0.87
2023-04-15T12:22:11.197Z,2.75
2023-04-15T12:24:39.091Z,3.03
2023-04-15T12:27:11.227Z,1.50
2023-04-15T12:29:39.778Z,1.70
2023-04-15T12:32:12.143Z,0.80
2023-04-15T12:34:41.325Z,1.00
2023-04-15T12:37:11.891Z,1.00
2023-04-15T12:39:41.060Z,1.95
2023-04-15T12:42:08.600Z,1.33
2023-04-15T12:44:36.837Z,1.57
2023-04-15T12:47:03.693Z,1.77
2023-04-15T12:49:32.527Z,1.98
2023-04-15T12:52:00.735Z,1.70
2023-04-15T12:54:28.680Z,2.60
2023-04-15T12:56:55.849Z,1.30
2023-04-15T12:59:24.103Z,2.28
2023-04-15T13:01:52.545Z,2.33
2023-04-15T13:04:20.626Z,4.95
2023-04-15T13:06:47.386Z,2.70
2023-04-15T13:09:13.896Z,5.50
2023-04-15T13:11:40.796Z,3.05
2023-04-15T13:14:09.107Z,2.25
2023-04-15T13:16:36.268Z,1.05
2023-04-15T13:19:03.971Z,2.38
2023-04-15T13:21:32.173Z,2.50
2023-04-15T13:23:59.407Z,3.08
2023-04-15T13:26:25.916Z,4.00
2023-04-15T13:28:52.462Z,1.88
2023-04-15T13:31:18.977Z,1.92
2023-04-15T13:33:45.430Z,2.67
2023-04-15T13:36:12.149Z,2.53
2023-04-15T13:38:38.622Z,1.42
2023-04-15T13:41:05.388Z,1.02
2023-04-15T13:43:34.211Z,2.75
2023-04-15T13:46:01.595Z,3.70
2023-04-15T13:48:28.873Z,0.70
2023-04-15T13:50:55.344Z,1.58
2023-04-15T13:53:21.833Z,1.88
2023-04-15T13:56:06.206Z,1.98
2023-04-15T13:58:32.877Z,1.53
2023-04-15T14:00:59.358Z,2.10
2023-04-15T14:03:26.055Z,1.67
2023-04-15T14:05:55.952Z,2.20
2023-04-15T14:08:22.902Z,1.15
2023-04-15T14:10:49.482Z,1.23
2023-04-15T14:13:16.022Z,1.20
2023-04-15T14:15:42.428Z,2.38
2023-04-15T14:18:09.116Z,2.38
2023-04-15T14:20:35.549Z,2.88
2023-04-15T14:23:01.942Z,3.80
2023-04-15T14:25:33.757Z,4.75
2023-04-15T14:28:00.826Z,4.45
2023-04-15T14:30:27.299Z,2.85
2023-04-15T14:32:54.982Z,2.35
2023-04-15T14:35:21.489Z,3.13
2023-04-15T14:37:47.945Z,1.65
2023-04-15T14:40:14.336Z,2.72
2023-04-15T14:42:40.881Z,3.28
2023-04-15T14:45:08.010Z,3.13
2023-04-15T14:47:34.481Z,1.67
2023-04-15T14:50:00.966Z,0.82
2023-04-15T14:52:27.343Z,5.88
2023-04-15T14:54:53.999Z,6.90
2023-04-15T14:57:20.513Z,3.85
2023-04-15T14:59:47.056Z,4.63
2023-04-15T15:02:17.323Z,2.90
2023-04-15T15:04:53.063Z,2.60
2023-04-15T15:07:19.559Z,2.05
2023-04-15T15:09:46.104Z,2.30
2023-04-15T15:12:12.501Z,1.17
2023-04-15T15:14:39.141Z,4.30
2023-04-15T15:17:05.786Z,4.60
2023-04-15T15:19:32.370Z,2.00
2023-04-15T15:21:58.778Z,1.63
2023-04-15T15:24:25.157Z,4.03
2023-04-15T15:26:51.958Z,2.83
2023-04-15T15:29:18.695Z,5.93
2023-04-15T15:31:45.200Z,5.45
2023-04-15T15:34:11.635Z,6.30
2023-04-15T15:36:38.093Z,5.07
2023-04-15T15:39:05.255Z,3.55
2023-04-15T15:41:33.339Z,9.00
2023-04-15T15:44:00.153Z,5.88
2023-04-15T15:46:28.190Z,6.72
2023-04-15T15:48:54.912Z,6.17
2023-04-15T15:51:21.309Z,4.22
2023-04-15T15:53:47.883Z,2.13
2023-04-15T15:56:14.391Z,4.20
2023-04-15T15:58:42.007Z,5.70
2023-04-15T16:01:08.551Z,6.40
2023-04-15T16:03:35.227Z,1.83
2023-04-15T16:06:01.836Z,3.20
2023-04-15T16:08:28.219Z,2.92
2023-04-15T16:10:54.974Z,2.72
2023-04-15T16:13:21.993Z,7.67
2023-04-15T16:15:50.219Z,8.13
2023-04-15T16:18:17.413Z,3.78
2023-04-15T16:20:44.124Z,2.92
2023-04-15T16:23:15.936Z,4.68
2023-04-15T16:25:43.658Z,5.83
2023-04-15T16:28:25.148Z,3.08
2023-04-15T16:30:53.112Z,0.75
2023-04-15T16:33:19.516Z,5.03
2023-04-15T16:35:45.896Z,1.63
2023-04-15T16:38:12.336Z,7.23
2023-04-15T16:40:38.909Z,2.60
2023-04-15T16:43:07.390Z,4.55
2023-04-15T16:45:33.929Z,4.53
2023-04-15T16:48:00.509Z,8.70
2023-04-15T16:50:27.183Z,7.00
2023-04-15T16:52:54.058Z,3.00
2023-04-15T16:55:20.582Z,5.05
2023-04-15T16:58:02.245Z,4.30
2023-04-15T17:00:31.070Z,5.07
2023-04-15T17:02:57.973Z,4.40
2023-04-15T17:05:24.665Z,4.95
2023-04-15T17:07:51.133Z,5.43
2023-04-15T17:10:17.722Z,5.28
2023-04-15T17:12:44.262Z,2.75
2023-04-15T17:15:11.066Z,8.47
2023-04-15T17:17:37.534Z,5.55
2023-04-15T17:20:04.269Z,5.28
2023-04-15T17:22:30.711Z,4.07
2023-04-15T17:24:57.140Z,4.80
2023-04-15T17:27:24.650Z,2.13
2023-04-15T17:29:51.064Z,5.45
2023-04-15T17:32:17.664Z,6.13
2023-04-15T17:34:49.603Z,4.10
2023-04-15T17:37:17.347Z,6.43
2023-04-15T17:39:43.836Z,3.00
2023-04-15T17:42:11.228Z,2.10
2023-04-15T17:44:37.630Z,3.97
2023-04-15T17:47:04.132Z,3.33
2023-04-15T17:49:31.679Z,2.45
2023-04-15T17:51:58.046Z,3.30
2023-04-15T17:54:24.421Z,4.00
2023-04-15T17:56:51.637Z,5.97
2023-04-15T17:59:18.315Z,8.57
2023-04-15T18:01:45.521Z,4.13
2023-04-15T18:04:12.366Z,5.63
2023-04-15T18:06:39.302Z,5.45
2023-04-15T18:09:06.654Z,5.60
2023-04-15T18:11:33.476Z,2.15
2023-04-15T18:14:02.169Z,3.13
2023-04-15T18:16:28.685Z,2.10
2023-04-15T18:18:55.516Z,2.65
2023-04-15T18:21:22.161Z,3.92
2023-04-15T18:23:48.587Z,5.88
2023-04-15T18:26:14.956Z,2.60
2023-04-15T18:28:41.360Z,5.73
2023-04-15T18:31:08.460Z,4.03
2023-04-15T18:33:35.906Z,3.42
2023-04-15T18:36:05.254Z,3.33
2023-04-15T18:38:31.825Z,3.22
2023-04-15T18:40:58.773Z,2.67
2023-04-15T18:43:25.328Z,1.70
2023-04-15T18:45:52.455Z,2.25
2023-04-15T18:48:19.094Z,3.88
2023-04-15T18:50:45.528Z,5.22
2023-04-15T18:53:11.979Z,1.97
2023-04-15T18:55:39.846Z,2.85
2023-04-15T18:58:09.113Z,1.20
2023-04-15T19:00:38.914Z,2.05
2023-04-15T19:03:06.319Z,5.15
2023-04-15T19:05:33.215Z,0.83
2023-04-15T19:07:59.870Z,1.52
2023-04-15T19:10:28.013Z,4.97
2023-04-15T19:12:55.147Z,3.55
2023-04-15T19:15:21.588Z,4.78
2023-04-15T19:17:48.075Z,3.57
2023-04-15T19:20:14.788Z,3.80
2023-04-15T19:22:42.959Z,1.95
2023-04-15T19:25:09.762Z,2.55
2023-04-15T19:27:38.108Z,4.55
2023-04-15T19:30:07.692Z,4.53
2023-04-15T19:32:35.124Z,3.28
2023-04-15T19:35:01.633Z,3.08
2023-04-15T19:37:28.146Z,4.95
2023-04-15T19:39:55.678Z,0.82
2023-04-15T19:42:23.667Z,5.13
2023-04-15T19:44:50.083Z,6.28
2023-04-15T19:47:16.641Z,4.00
2023-04-15T19:49:43.403Z,1.67
2023-04-15T19:52:09.916Z,6.00
2023-04-15T19:54:36.482Z,5.73
2023-04-15T19:57:02.993Z,2.05
2023-04-15T19:59:29.388Z,3.92
2023-04-15T20:01:55.879Z,4.50
2023-04-15T20:04:22.622Z,2.72
2023-04-15T20:06:49.680Z,1.03
2023-04-15T20:09:16.301Z,4.90
2023-04-15T20:12:47.503Z,4.57
2023-04-15T20:14:29.646Z,2.45
2023-04-15T20:16:56.114Z,5.60
2023-04-15T20:19:22.562Z,4.17
2023-04-15T20:21:50.789Z,5.55
2023-04-15T20:24:19.810Z,2.47
2023-04-15T20:26:46.262Z,3.08
2023-04-15T20:29:13.523Z,3.33
2023-04-15T20:31:39.961Z,5.63
2023-04-15T20:34:06.454Z,1.75
2023-04-15T20:36:33.480Z,4.95
2023-04-15T20:38:59.976Z,4.22
2023-04-15T20:41:26.438Z,2.67
2023-04-15T20:43:52.825Z,5.50
2023-04-15T20:46:21.392Z,3.65
2023-04-15T20:48:48.539Z,3.90
2023-04-15T20:51:15.539Z,4.38
2023-04-15T20:53:42.283Z,5.72
2023-04-15T20:56:09.116Z,6.53
2023-04-15T20:58:35.575Z,6.85
2023-04-15T21:01:02.324Z,4.68
2023-04-15T21:03:28.943Z,4.13
2023-04-15T21:05:55.864Z,6.18
2023-04-15T21:08:29.238Z,4.87
2023-04-15T21:10:56.917Z,7.93
2023-04-15T21:13:23.886Z,5.32
2023-04-15T21:15:53.321Z,4.45
2023-04-15T21:18:23.058Z,10.20
2023-04-15T21:20:56.624Z,2.37
2023-04-15T21:23:23.169Z,2.55
2023-04-15T21:25:49.841Z,3.72
2023-04-15T21:28:16.265Z,3.53
2023-04-15T21:30:42.839Z,2.33
2023-04-15T21:33:09.262Z,4.03
2023-04-15T21:35:35.645Z,2.85
2023-04-15T21:38:02.045Z,5.25
2023-04-15T21:40:28.526Z,5.10
2023-04-15T21:42:54.944Z,5.47
2023-04-15T21:45:21.677Z,5.60
2023-04-15T21:47:56.889Z,4.57
2023-04-15T21:50:32.249Z,1.15
2023-04-15T21:52:58.631Z,4.35
2023-04-15T21:55:25.338Z,1.92
2023-04-15T21:57:51.719Z,3.43
2023-04-15T22:00:18.111Z,3.03
2023-04-15T22:02:44.711Z,3.42
2023-04-15T22:05:11.706Z,4.70
2023-04-15T22:07:38.094Z,5.05
2023-04-15T22:10:05.155Z,1.57
2023-04-15T22:12:31.783Z,5.57
2023-04-15T22:14:58.201Z,3.22
2023-04-15T22:17:25.395Z,3.42
2023-04-15T22:19:51.765Z,4.82
2023-04-15T22:22:18.130Z,1.93
2023-04-15T22:24:46.490Z,3.35
2023-04-15T22:27:12.866Z,2.97
2023-04-15T22:29:39.294Z,8.48
2023-04-15T22:32:05.912Z,3.97
2023-04-15T22:34:32.368Z,7.07
2023-04-15T22:36:59.045Z,3.97
2023-04-15T22:39:25.470Z,7.85
2023-04-15T22:41:51.825Z,4.65
2023-04-15T22:44:18.277Z,12.27
2023-04-15T22:46:44.734Z,7.20
2023-04-15T22:49:11.101Z,3.78
2023-04-15T22:51:38.179Z,5.07
2023-04-15T22:54:04.547Z,2.33
2023-04-15T22:56:31.062Z,6.57
2023-04-15T22:58:57.487Z,5.53
2023-04-15T23:01:23.946Z,5.97
2023-04-15T23:03:55.616Z,7.50
2023-04-15T23:06:24.051Z,3.17
2023-04-15T23:08:50.941Z,2.33
2023-04-15T23:11:18.393Z,3.10
2023-04-15T23:13:44.748Z,7.00
2023-04-15T23:16:11.289Z,4.15
2023-04-15T23:18:37.706Z,6.25
2023-04-15T23:21:04.277Z,6.45
2023-04-15T23:23:31.177Z,3.47
2023-04-15T23:25:57.551Z,6.63
2023-04-15T23:28:23.993Z,3.75
2023-04-15T23:30:50.410Z,6.80
2023-04-15T23:33:16.800Z,7.22
2023-04-15T23:35:43.328Z,7.60
2023-04-15T23:38:09.746Z,6.35
2023-04-15T23:40:36.132Z,6.43
2023-04-15T23:43:02.512Z,4.65
2023-04-15T23:45:29.049Z,4.53
2023-04-15T23:47:55.505Z,2.33
2023-04-15T23:50:22.156Z,6.97
2023-04-15T23:52:48.620Z,6.82
2023-04-15T23:55:15.073Z,4.88
2023-04-15T23:57:41.475Z,4.20
